Time;durP1;ratioP1;P1;durP2;ratioP2;P2;SDS_P1;SDS_P2;PMS_P1;PMS_P2;Temp;Humidity;BMP_temperature;BMP_pressure;BME280_temperature;BME280_humidity;BME280_pressure;Samples;Min_cycle;Max_cycle;Signal;HPM_P1;HPM_P2
2023/02/24 10:12:02;;;;;;;43.13;36.80;;;11.10;99.90;;;;;;5127996;27;20785;-77
2023/02/24 10:14:37;;;;;;;45.30;36.03;;;12.80;99.90;;;;;;5127502;27;20444;-78
2023/02/24 10:17:22;;;;;;;37.47;33.37;;;13.10;99.90;;;;;;5128344;27;20531;-76
2023/02/24 10:19:55;;;;;;;40.07;34.57;;;13.00;99.90;;;;;;5126688;27;20440;-75
2023/02/24 10:22:33;;;;;;;43.70;37.03;;;13.10;99.90;;;;;;5126653;28;20441;-76
2023/02/24 10:25:12;;;;;;;42.67;35.47;;;12.80;99.90;;;;;;5126868;28;20459;-77
2023/02/24 10:27:56;;;;;;;38.43;32.87;;;12.70;99.90;;;;;;5126855;27;20445;-76
2023/02/24 10:30:42;;;;;;;38.30;31.23;;;12.70;99.90;;;;;;5126495;27;20538;-77
2023/02/24 10:33:19;;;;;;;38.37;32.47;;;12.70;99.90;;;;;;5126620;27;20444;-76
2023/02/24 10:35:46;;;;;;;41.50;36.37;;;12.40;99.90;;;;;;5126773;27;20532;-77
2023/02/24 10:38:13;;;;;;;38.30;32.70;;;12.50;99.90;;;;;;5126731;27;20557;-77
2023/02/24 10:40:49;;;;;;;43.27;29.40;;;12.40;99.90;;;;;;5126666;27;20919;-78
2023/02/24 10:43:19;;;;;;;33.60;24.90;;;12.50;99.90;;;;;;5126634;27;20818;-77
2023/02/24 10:45:46;;;;;;;30.97;25.43;;;12.50;99.90;;;;;;5126544;27;20444;-75
2023/02/24 10:48:23;;;;;;;30.27;25.20;;;12.30;99.90;;;;;;5126530;27;20489;-78
2023/02/24 10:50:53;;;;;;;27.73;24.67;;;12.50;99.90;;;;;;5126179;27;20968;-77
2023/02/24 10:53:33;;;;;;;34.03;24.50;;;12.60;99.90;;;;;;5126239;27;20644;-77
2023/02/24 10:56:25;;;;;;;29.80;23.10;;;12.70;99.90;;;;;;5126453;27;20501;-77
2023/02/24 10:59:39;;;;;;;26.77;23.60;;;12.80;99.90;;;;;;5126240;28;20476;-78
2023/02/24 11:02:28;;;;;;;28.83;24.90;;;12.80;99.90;;;;;;5126075;28;20444;-77
2023/02/24 11:05:15;;;;;;;28.23;24.37;;;12.60;99.90;;;;;;5125957;27;20484;-77
2023/02/24 11:07:52;;;;;;;31.03;25.93;;;12.50;99.90;;;;;;5126123;27;20464;-78
2023/02/24 11:10:25;;;;;;;32.90;28.03;;;12.60;99.90;;;;;;5125690;27;20519;-76
2023/02/24 11:18:31;;;;;;;58.33;32.07;;;12.50;99.90;;;;;;5112337;28;20425;-78
2023/02/24 11:21:00;;;;;;;40.30;31.80;;;12.30;99.90;;;;;;5112046;28;20445;-76
2023/02/24 11:23:30;;;;;;;42.87;31.20;;;12.30;99.90;;;;;;5112108;28;20449;-78
2023/02/24 11:26:00;;;;;;;45.93;31.87;;;12.20;99.90;;;;;;5112300;28;20961;-77
2023/02/24 11:28:39;;;;;;;45.40;33.17;;;12.30;99.90;;;;;;5112231;27;20460;-76
2023/02/24 11:31:21;;;;;;;37.77;32.10;;;12.40;99.90;;;;;;5111704;28;20537;-76
2023/02/24 11:33:57;;;;;;;49.70;32.70;;;12.50;99.90;;;;;;5111751;28;20460;-76
2023/02/24 11:36:33;;;;;;;43.37;33.03;;;12.50;99.90;;;;;;5111497;28;20540;-76
2023/02/24 11:39:09;;;;;;;47.90;35.83;;;12.30;99.90;;;;;;5111651;28;20449;-76
2023/02/24 11:41:39;;;;;;;40.53;30.90;;;12.20;99.90;;;;;;5111592;28;20457;-76
2023/02/24 11:44:13;;;;;;;51.70;34.27;;;12.20;99.90;;;;;;5111535;27;20468;-77
2023/02/24 11:46:45;;;;;;;47.80;32.63;;;12.20;99.90;;;;;;5111463;28;20502;-75
2023/02/24 11:49:26;;;;;;;42.90;32.33;;;12.30;99.90;;;;;;5111550;28;20473;-77
2023/02/24 11:51:55;;;;;;;41.73;34.17;;;12.20;99.90;;;;;;5111157;28;20931;-77
2023/02/24 11:54:23;;;;;;;41.47;32.47;;;12.20;99.90;;;;;;5111200;28;20449;-77
2023/02/24 11:56:54;;;;;;;44.50;33.97;;;12.30;99.90;;;;;;5111398;28;20697;-76
2023/02/24 11:59:29;;;;;;;44.50;33.33;;;12.20;99.90;;;;;;5111426;27;20826;-77
2023/02/24 12:02:06;;;;;;;42.93;32.30;;;12.30;99.90;;;;;;5111472;28;20453;-76
2023/02/24 12:04:39;;;;;;;37.17;30.07;;;12.50;99.90;;;;;;5111098;28;20589;-76
2023/02/24 12:07:09;;;;;;;41.53;31.00;;;12.40;99.90;;;;;;5111058;28;20465;-76
2023/02/24 12:09:43;;;;;;;39.20;30.60;;;12.40;99.90;;;;;;5111065;28;20679;-76
2023/02/24 12:12:17;;;;;;;39.87;30.23;;;12.50;99.90;;;;;;5111121;28;20982;-76
2023/02/24 12:14:48;;;;;;;41.07;31.20;;;12.60;99.90;;;;;;5111400;28;20449;-76
2023/02/24 12:17:23;;;;;;;39.20;29.17;;;12.70;99.90;;;;;;5111332;28;20454;-76
2023/02/24 12:20:05;;;;;;;40.20;31.20;;;13.00;99.90;;;;;;5111019;28;20931;-78
2023/02/24 12:22:44;;;;;;;42.00;27.93;;;13.60;99.90;;;;;;5110552;28;20445;-76
2023/02/24 12:25:13;;;;;;;41.20;29.30;;;14.30;99.90;;;;;;5111039;28;20453;-76
2023/02/24 12:27:53;;;;;;;44.83;29.60;;;14.60;99.90;;;;;;5111090;28;21050;-76
2023/02/24 12:30:47;;;;;;;35.47;28.67;;;15.50;99.90;;;;;;5110979;28;20803;-75
2023/02/24 12:33:27;;;;;;;32.13;27.83;;;16.10;99.90;;;;;;5111249;28;20475;-76
2023/02/24 12:36:02;;;;;;;34.90;28.77;;;16.40;99.90;;;;;;5110710;28;20437;-76
2023/02/24 12:38:46;;;;;;;36.50;27.70;;;16.50;99.90;;;;;;5111093;28;20819;-76
2023/02/24 12:41:35;;;;;;;32.30;28.47;;;16.60;99.90;;;;;;5111019;28;20445;-76
2023/02/24 12:44:13;;;;;;;33.43;26.20;;;17.00;99.90;;;;;;5110847;28;20448;-78
2023/02/24 12:46:40;;;;;;;33.03;29.53;;;17.20;99.90;;;;;;5110844;28;20448;-77
2023/02/24 12:49:32;;;;;;;32.37;27.87;;;17.30;99.90;;;;;;5110652;28;20944;-76
2023/02/24 12:52:09;;;;;;;31.33;27.97;;;17.00;99.90;;;;;;5110698;28;20488;-77
2023/02/24 12:54:40;;;;;;;33.43;28.30;;;16.50;99.90;;;;;;5110958;28;20449;-77
2023/02/24 12:57:13;;;;;;;31.70;26.47;;;16.00;99.90;;;;;;5111030;27;20521;-77
2023/02/24 12:59:41;;;;;;;33.47;29.00;;;16.00;99.90;;;;;;5110775;28;20443;-77
2023/02/24 13:02:19;;;;;;;32.07;27.73;;;16.30;99.90;;;;;;5110625;28;20498;-77
2023/02/24 13:04:56;;;;;;;34.10;27.43;;;16.40;99.90;;;;;;5111121;28;20840;-78
2023/02/24 13:07:50;;;;;;;36.03;29.90;;;15.80;99.90;;;;;;5110570;28;20476;-77
2023/02/24 13:10:29;;;;;;;32.90;29.43;;;15.30;99.90;;;;;;5110343;28;20497;-77
2023/02/24 13:13:06;;;;;;;34.00;30.40;;;15.20;99.90;;;;;;5110662;28;20465;-76
2023/02/24 13:15:32;;;;;;;34.90;30.30;;;14.80;99.90;;;;;;5110493;28;20460;-76
2023/02/24 13:17:59;;;;;;;33.10;28.37;;;14.10;99.90;;;;;;5110551;28;20441;-76
2023/02/24 13:20:31;;;;;;;38.10;29.37;;;13.80;99.90;;;;;;5110749;28;20455;-76
2023/02/24 13:22:59;;;;;;;38.40;28.40;;;13.70;99.90;;;;;;5110202;28;20449;-76
2023/02/24 13:25:31;;;;;;;36.93;26.47;;;13.60;99.90;;;;;;5110575;28;20465;-76
2023/02/24 13:28:01;;;;;;;35.00;26.47;;;13.40;99.90;;;;;;5110365;28;20460;-78
2023/02/24 13:30:33;;;;;;;26.47;23.13;;;13.30;99.90;;;;;;5110197;28;20488;-78
2023/02/24 13:33:07;;;;;;;30.10;25.57;;;13.10;99.90;;;;;;5110302;28;20802;-76
2023/02/24 13:35:36;;;;;;;26.17;22.53;;;13.30;99.90;;;;;;5109551;28;20453;-77
2023/02/24 13:38:23;;;;;;;25.27;20.07;;;13.60;99.90;;;;;;5109998;28;20448;-76
2023/02/24 13:40:50;;;;;;;23.77;21.33;;;13.50;99.90;;;;;;5109941;28;20606;-76
2023/02/24 13:43:26;;;;;;;23.47;21.33;;;13.70;99.90;;;;;;5109763;28;20506;-76
2023/02/24 13:45:59;;;;;;;25.60;22.47;;;13.90;99.90;;;;;;5109481;28;20453;-77
2023/02/24 13:48:45;;;;;;;26.33;22.00;;;14.00;99.90;;;;;;5110089;28;20454;-78
2023/02/24 13:51:38;;;;;;;24.63;21.60;;;13.80;99.90;;;;;;5109599;28;20508;-78
2023/02/24 13:54:19;;;;;;;25.30;21.37;;;13.80;99.90;;;;;;5109696;28;20449;-77
2023/02/24 13:56:55;;;;;;;41.00;25.70;;;13.90;99.90;;;;;;5109671;28;20931;-77
2023/02/24 13:59:48;;;;;;;31.73;26.93;;;13.60;99.90;;;;;;5109731;28;20460;-75
2023/02/24 14:02:17;;;;;;;37.50;29.70;;;13.60;99.90;;;;;;5107397;28;20460;-77
2023/02/24 14:04:50;;;;;;;43.60;32.37;;;13.50;99.90;;;;;;5109578;28;20441;-76
2023/02/24 14:07:22;;;;;;;36.17;29.40;;;13.40;99.90;;;;;;5108969;28;20462;-76
2023/02/24 14:09:53;;;;;;;36.50;29.10;;;13.20;99.90;;;;;;5109102;28;20485;-76
2023/02/24 14:12:24;;;;;;;41.50;28.77;;;13.20;99.90;;;;;;5109453;28;20602;-76
2023/02/24 14:14:52;;;;;;;39.70;30.50;;;12.90;99.90;;;;;;5109311;28;20445;-76
2023/02/24 14:17:27;;;;;;;40.10;30.53;;;12.80;99.90;;;;;;5109391;28;20446;-77
2023/02/24 14:19:54;;;;;;;40.40;32.23;;;12.70;99.90;;;;;;5109328;28;20456;-76
2023/02/24 14:22:22;;;;;;;37.57;29.63;;;12.60;99.90;;;;;;5109066;28;20441;-75
2023/02/24 14:24:49;;;;;;;39.63;29.30;;;12.50;99.90;;;;;;5109083;28;20880;-76
2023/02/24 14:27:24;;;;;;;36.90;29.60;;;12.50;99.90;;;;;;5109322;28;20456;-77
2023/02/24 14:29:52;;;;;;;39.33;29.33;;;12.40;99.90;;;;;;5109128;28;21102;-77
2023/02/24 14:32:21;;;;;;;42.63;30.27;;;12.20;99.90;;;;;;5109049;28;21003;-77
2023/02/24 14:34:49;;;;;;;42.27;29.67;;;12.20;99.90;;;;;;5109030;28;20522;-77
2023/02/24 14:37:16;;;;;;;37.97;27.30;;;12.30;99.90;;;;;;5109272;28;20528;-76
2023/02/24 14:39:52;;;;;;;39.87;29.30;;;12.30;99.90;;;;;;5109477;28;20835;-77
2023/02/24 14:42:20;;;;;;;30.97;27.30;;;12.30;99.90;;;;;;5109185;28;20792;-77
2023/02/24 14:44:49;;;;;;;32.30;25.03;;;12.40;99.90;;;;;;5109147;28;20488;-77
2023/02/24 14:47:17;;;;;;;37.47;26.83;;;12.40;99.90;;;;;;5111684;28;20449;-77
2023/02/24 14:49:53;;;;;;;29.87;22.70;;;12.40;99.90;;;;;;5113315;28;20894;-77
2023/02/24 14:52:32;;;;;;;45.50;24.07;;;12.40;99.90;;;;;;5112776;28;20596;-77
2023/02/24 14:55:04;;;;;;;27.53;23.20;;;12.40;99.90;;;;;;5113309;28;20460;-77
2023/02/24 14:57:38;;;;;;;34.33;24.57;;;12.40;99.90;;;;;;5112939;28;20506;-76
2023/02/24 15:00:11;;;;;;;28.40;24.33;;;12.30;99.90;;;;;;5112632;28;20445;-77
2023/02/24 15:02:43;;;;;;;26.80;23.97;;;12.20;99.90;;;;;;5112809;28;20445;-76
2023/02/24 15:05:11;;;;;;;26.00;23.20;;;12.20;99.90;;;;;;5112790;28;20448;-76
2023/02/24 15:07:38;;;;;;;28.03;25.30;;;12.20;99.90;;;;;;5112502;28;20522;-77
2023/02/24 15:10:17;;;;;;;26.13;23.23;;;12.20;99.90;;;;;;5112301;28;20690;-76
2023/02/24 15:12:48;;;;;;;27.60;24.67;;;12.20;99.90;;;;;;5112728;28;20480;-76
2023/02/24 15:15:20;;;;;;;29.27;26.13;;;12.20;99.90;;;;;;5112393;28;20441;-76
2023/02/24 15:17:50;;;;;;;29.00;24.50;;;12.00;99.90;;;;;;5112344;28;20449;-77
2023/02/24 15:20:28;;;;;;;26.67;23.87;;;11.80;99.90;;;;;;5112145;28;20450;-76
2023/02/24 15:22:56;;;;;;;28.00;25.23;;;11.70;99.90;;;;;;5111945;28;20449;-76
2023/02/24 15:25:26;;;;;;;28.40;24.30;;;11.60;99.90;;;;;;5112006;27;20452;-76
2023/02/24 15:27:55;;;;;;;27.73;24.90;;;11.60;99.90;;;;;;5111743;28;20522;-76
2023/02/24 15:30:31;;;;;;;34.83;27.53;;;11.60;99.90;;;;;;5112253;28;20689;-78
2023/02/24 15:33:07;;;;;;;28.93;24.50;;;11.60;99.90;;;;;;5112108;28;20485;-77
2023/02/24 15:35:38;;;;;;;26.90;24.10;;;11.70;99.90;;;;;;5111926;27;20452;-78
2023/02/24 15:38:05;;;;;;;28.43;24.20;;;11.70;99.90;;;;;;5111724;27;21023;-77
2023/02/24 15:40:33;;;;;;;26.20;23.57;;;11.80;99.90;;;;;;5111545;27;20441;-76
2023/02/24 15:43:08;;;;;;;26.17;23.67;;;11.70;99.90;;;;;;5111665;28;20445;-77
2023/02/24 15:45:36;;;;;;;25.63;23.13;;;11.80;99.90;;;;;;5111509;27;20448;-77
2023/02/24 15:48:18;;;;;;;24.63;22.17;;;11.80;99.90;;;;;;5111676;28;21068;-77
2023/02/24 15:50:45;;;;;;;25.03;22.30;;;11.70;99.90;;;;;;5111654;28;20461;-77
2023/02/24 15:53:12;;;;;;;24.73;22.17;;;11.80;99.90;;;;;;5111546;28;20448;-78
2023/02/24 15:55:42;;;;;;;27.87;25.40;;;11.70;99.90;;;;;;5111620;28;20862;-80
2023/02/24 15:58:14;;;;;;;29.17;26.37;;;11.60;99.90;;;;;;5111156;28;20827;-79
2023/02/24 16:00:41;;;;;;;29.63;26.50;;;11.40;99.90;;;;;;5111262;28;20575;-78
2023/02/24 16:03:08;;;;;;;32.03;28.93;;;11.40;99.90;;;;;;5111147;28;20446;-77
2023/02/24 16:05:35;;;;;;;36.27;33.27;;;11.30;99.90;;;;;;5111298;28;20972;-76
2023/02/24 16:08:02;;;;;;;41.43;37.80;;;11.20;99.90;;;;;;5111066;28;21006;-77
2023/02/24 16:10:30;;;;;;;41.93;38.03;;;11.00;99.90;;;;;;5111518;28;20485;-76
2023/02/24 16:13:00;;;;;;;43.43;39.50;;;11.00;99.90;;;;;;5111715;28;20529;-78
2023/02/24 16:15:30;;;;;;;44.10;40.20;;;10.90;99.90;;;;;;5111760;28;20449;-77
2023/02/24 16:17:57;;;;;;;42.73;38.67;;;10.80;99.90;;;;;;5111756;27;20457;-76
2023/02/24 16:20:30;;;;;;;43.23;38.90;;;10.70;99.90;;;;;;5111359;28;20445;-76
2023/02/24 16:22:58;;;;;;;43.40;39.40;;;10.70;99.90;;;;;;5111958;28;20828;-75
2023/02/24 16:25:26;;;;;;;43.33;39.63;;;10.60;99.90;;;;;;5111471;28;20482;-78
2023/02/24 16:27:56;;;;;;;45.30;40.73;;;10.50;99.90;;;;;;5111260;28;20449;-76
2023/02/24 16:30:28;;;;;;;43.03;39.30;;;10.40;99.90;;;;;;5111199;28;20449;-76
2023/02/24 16:32:56;;;;;;;41.93;38.10;;;10.40;99.90;;;;;;5111314;28;20493;-77
2023/02/24 16:35:24;;;;;;;45.40;40.90;;;10.30;99.90;;;;;;5111129;28;20453;-76
2023/02/24 16:37:51;;;;;;;42.37;38.87;;;10.40;99.90;;;;;;5111142;28;20987;-77
2023/02/24 16:40:22;;;;;;;45.40;41.37;;;10.30;99.90;;;;;;5111238;28;20877;-78
2023/02/24 16:42:49;;;;;;;42.23;38.30;;;10.30;99.90;;;;;;5111506;28;20944;-79
2023/02/24 16:45:16;;;;;;;42.87;39.17;;;10.30;99.90;;;;;;5111210;28;20523;-78
2023/02/24 16:47:44;;;;;;;44.33;40.07;;;10.20;99.90;;;;;;5111273;28;20457;-80
2023/02/24 16:50:18;;;;;;;45.37;41.43;;;10.20;99.90;;;;;;5111073;28;20948;-77
2023/02/24 16:52:45;;;;;;;45.00;41.17;;;10.20;99.90;;;;;;5111057;28;20996;-75
2023/02/24 16:55:13;;;;;;;45.37;41.43;;;10.20;99.90;;;;;;5111088;28;20441;-76
2023/02/24 16:57:40;;;;;;;48.43;43.73;;;10.10;99.90;;;;;;5111098;28;20449;-75
2023/02/24 17:00:08;;;;;;;47.67;42.77;;;10.10;99.90;;;;;;5110887;28;20648;-75
2023/02/24 17:02:35;;;;;;;47.37;43.00;;;10.10;99.90;;;;;;5110818;28;21048;-75
2023/02/24 17:05:03;;;;;;;44.47;40.00;;;10.10;99.90;;;;;;5110656;28;20566;-76
2023/02/24 17:07:30;;;;;;;45.83;41.37;;;10.00;99.90;;;;;;5110830;28;20486;-76
2023/02/24 17:09:57;;;;;;;44.77;40.40;;;10.00;99.90;;;;;;5110384;28;20480;-75
2023/02/24 17:12:23;;;;;;;49.70;45.00;;;9.90;99.90;;;;;;5110338;28;20492;-75
2023/02/24 17:14:50;;;;;;;45.40;41.23;;;10.00;99.90;;;;;;5110495;28;20449;-75
2023/02/24 17:17:17;;;;;;;45.43;41.50;;;9.90;99.90;;;;;;5110364;28;20459;-75
2023/02/24 17:19:43;;;;;;;44.47;40.50;;;9.80;99.90;;;;;;5110508;28;20456;-75
2023/02/24 17:22:11;;;;;;;44.97;40.77;;;9.80;99.90;;;;;;5110247;28;20449;-74
2023/02/24 17:24:38;;;;;;;45.60;41.27;;;9.80;99.90;;;;;;5109958;28;20494;-75
2023/02/24 17:27:06;;;;;;;47.43;42.67;;;9.80;99.90;;;;;;5110101;28;20727;-74
2023/02/24 17:29:33;;;;;;;44.50;40.90;;;9.80;99.90;;;;;;5110012;28;20455;-75
2023/02/24 17:32:00;;;;;;;46.67;42.37;;;9.70;99.90;;;;;;5110013;28;21022;-74
2023/02/24 17:34:26;;;;;;;45.33;41.47;;;9.70;99.90;;;;;;5110287;28;20468;-74
2023/02/24 17:36:54;;;;;;;47.57;42.47;;;9.70;99.90;;;;;;5109694;28;20464;-74
2023/02/24 17:39:22;;;;;;;43.83;39.93;;;9.70;99.90;;;;;;5109955;28;20736;-74
2023/02/24 17:41:49;;;;;;;44.90;40.93;;;9.70;99.90;;;;;;5109995;28;20811;-74
2023/02/24 17:44:15;;;;;;;46.67;42.47;;;9.70;99.90;;;;;;5110219;28;20452;-74
2023/02/24 17:46:42;;;;;;;43.10;39.70;;;9.70;99.90;;;;;;5110296;27;20454;-75
2023/02/24 17:49:09;;;;;;;44.20;40.50;;;9.70;99.90;;;;;;5109817;28;20441;-75
2023/02/24 17:51:35;;;;;;;45.27;41.50;;;9.60;99.90;;;;;;5109665;28;20454;-74
2023/02/24 17:54:02;;;;;;;43.50;39.77;;;9.60;99.90;;;;;;5109847;28;20460;-75
2023/02/24 17:56:30;;;;;;;44.03;40.50;;;9.60;99.90;;;;;;5109997;28;20506;-74
